Latest Weather Observations for Luncheon Hill

IDT60801

Issued at 5:02 pm EST Tuesday 26 September 2017 (issued every 30 minutes, with the page automatically refreshed every 10 minutes)

About weather observations | Map of weather stations | Latest weather observations for TAS | Other Formats
Station Details ID: 091259 Name: LUNCHEON HILL (FORESTRY) Lat: -41.15 Lon: 145.15 Height: 344.0 m
Data from the previous 72 hours. | See also: Recent months at Luncheon Hill
Date/Time
EST
Temp
°C
App
Temp
°C
Dew
Point
°C
Rel
Hum
%
Delta-T
°C
Wind Press
QNH
hPa
Press
MSL
hPa
Rain since
9am
mm
Dir  Spd
km/h
Gust
km/h
Spd
kts
Gust
kts
26/05:00pm 8.4 4.1 3.1 69 2.3 SW 15 26 8 14 - - 0.0
26/04:30pm 8.3 4.0 3.0 69 2.3 SW 15 26 8 14 - - 0.0
26/04:00pm 8.8 4.9 3.6 70 2.3 WSW 13 24 7 13 - - 0.0
26/03:30pm 8.5 3.8 3.4 70 2.2 SW 17 32 9 17 - - 0.0
26/03:00pm 8.5 4.6 3.6 71 2.2 WSW 13 24 7 13 - - 0.0
26/02:30pm 8.9 4.9 4.7 75 1.9 WSW 15 24 8 13 - - 0.0
26/02:00pm 8.9 4.4 4.1 72 2.1 SW 17 28 9 15 - - 0.0
26/01:30pm 9.6 4.9 3.4 65 2.7 SW 17 28 9 15 - - 0.0
26/01:00pm 9.0 4.4 3.8 70 2.3 WSW 17 28 9 15 - - 0.0
26/12:30pm 10.3 6.9 4.2 66 2.8 WSW 11 20 6 11 - - 0.0
26/12:00pm 8.8 4.8 5.0 77 1.7 SW 15 28 8 15 - - 0.0
26/11:30am 8.4 4.2 3.8 73 2.0 SW 15 24 8 13 - - 0.0
26/11:00am 8.4 4.6 3.7 72 2.1 SW 13 22 7 12 - - 0.0
26/10:30am 8.4 4.2 3.8 73 2.0 SW 15 24 8 13 - - 0.0
26/10:00am 7.6 4.3 4.7 82 1.3 SW 11 19 6 10 - - 0.0
26/09:30am 7.5 3.8 4.5 81 1.3 SSW 13 24 7 13 - - 0.0
26/09:00am 6.5 2.8 4.5 87 0.9 SW 13 20 7 11 - - 1.8
26/08:30am 6.6 2.9 4.6 87 0.9 SW 13 22 7 12 - - 1.8
26/08:00am 5.8 1.3 4.4 91 0.6 SSW 17 26 9 14 - - 1.8
26/07:30am 4.4 0.1 3.2 92 0.5 SSW 15 19 8 10 - - 1.8
26/07:00am 3.7 -1.4 2.8 94 0.4 SW 19 26 10 14 - - 1.8
26/06:30am 3.6 -1.1 2.9 95 0.3 SSW 17 30 9 16 - - 1.8
26/06:00am 3.5 -1.3 2.6 94 0.4 SSW 17 20 9 11 - - 1.8
26/05:30am 3.7 -2.0 2.8 94 0.4 SSW 22 33 12 18 - - 1.8
26/05:00am 3.5 -1.7 2.3 92 0.5 SSW 19 26 10 14 - - 1.6
26/04:30am 3.2 -2.3 2.0 92 0.5 SSW 20 26 11 14 - - 1.6
26/04:00am 3.2 -2.3 2.0 92 0.5 SSW 20 26 11 14 - - 1.6
26/03:30am 3.2 -2.0 2.2 93 0.4 SSW 19 22 10 12 - - 1.6
26/03:00am 3.6 -1.8 2.4 92 0.5 SW 20 28 11 15 - - 1.4
26/02:30am 3.3 -2.4 2.6 95 0.3 SSW 22 28 12 15 - - 1.4
26/02:00am 3.2 -2.0 2.6 96 0.2 SW 19 24 10 13 - - 1.4
26/01:30am 3.7 -1.4 3.1 96 0.2 SW 19 26 10 14 - - 1.4
26/01:00am 3.8 -0.9 3.2 96 0.2 SW 17 26 9 14 - - 1.4
26/12:30am 3.9 -0.4 3.3 96 0.3 SW 15 20 8 11 - - 1.2
26/12:00am 3.7 -1.6 3.1 96 0.2 SSW 20 26 11 14 - - 1.2
 
Date/Time
EST
Temp
°C
App
Temp
°C
Dew
Point
°C
Rel
Hum
%
Delta-T
°C
Wind Press
QNH
hPa
Press
MSL
hPa
Rain since
9am
mm
Dir  Spd
km/h
Gust
km/h
Spd
kts
Gust
kts
25/11:30pm 3.9 -1.3 3.3 96 0.3 SSW 20 28 11 15 - - 1.2
25/11:00pm 3.8 -0.9 3.2 96 0.2 SSW 17 22 9 12 - - 1.2
25/10:30pm 4.1 -0.9 3.5 96 0.3 SSW 19 26 10 14 - - 1.2
25/10:00pm 3.9 -0.8 3.2 95 0.3 SW 17 28 9 15 - - 1.2
25/09:30pm 3.9 -0.8 3.2 95 0.3 SSW 17 28 9 15 - - 1.0
25/09:00pm 4.0 -0.7 3.3 95 0.3 SSW 17 22 9 12 - - 1.0
25/08:30pm 4.1 -0.6 3.4 95 0.3 SSW 17 22 9 12 - - 1.0
25/08:00pm 4.0 -0.7 3.1 94 0.4 SSW 17 28 9 15 - - 1.0
25/07:30pm 4.3 -1.0 3.1 92 0.5 SW 20 35 11 19 - - 0.8
25/07:00pm 4.4 -0.7 2.9 90 0.6 SSW 19 32 10 17 - - 0.8
25/06:30pm 4.8 -0.3 3.3 90 0.6 SSW 19 32 10 17 - - 0.8
25/06:00pm 4.9 -1.2 2.9 87 0.8 SSW 24 35 13 19 - - 0.8
25/05:30pm 5.9 -0.2 2.5 79 1.4 SW 24 39 13 21 - - 0.4
25/05:00pm 6.4 -0.6 2.1 74 1.8 SSW 28 46 15 25 - - 0.4
25/04:35pm 7.1 0.1 1.8 69 2.2 SSW 28 48 15 26 - - 0.4
25/04:30pm 7.4 1.2 2.3 70 2.2 SSW 24 41 13 22 - - 0.4
25/04:00pm 6.8 0.7 2.7 75 1.7 SSW 24 41 13 22 - - 0.4
25/03:37pm 6.5 0.0 4.8 89 0.8 SSW 28 46 15 25 - - 0.4
25/03:30pm 5.9 0.5 4.4 90 0.7 SSW 22 37 12 20 - - 0.4
25/03:00pm 7.5 -0.1 4.1 79 1.5 SSW 33 52 18 28 - - 0.2
25/02:30pm 7.6 1.1 4.6 81 1.3 SW 28 50 15 27 - - 0.2
25/02:16pm 7.3 0.6 3.9 79 1.5 SW 28 48 15 26 - - 0.2
25/02:00pm 7.6 2.1 3.8 77 1.7 SW 22 39 12 21 - - 0.2
25/01:30pm 8.6 2.0 2.2 64 2.7 SSW 26 43 14 23 - - 0.2
25/01:00pm 8.7 2.0 3.5 70 2.3 SSW 28 46 15 25 - - 0.2
25/12:35pm 7.6 0.8 2.9 72 2.0 SSW 28 52 15 28 - - 0.2
25/12:30pm 8.4 2.2 4.4 76 1.8 SSW 26 43 14 23 - - 0.2
25/12:07pm 6.9 0.3 4.0 82 1.3 SSW 28 50 15 27 - - 0.2
25/12:00pm 8.1 3.2 5.0 81 1.4 S 20 43 11 23 - - 0.2
25/11:41am 7.6 1.1 4.6 81 1.3 SSW 28 48 15 26 - - 0.2
25/11:30am 7.4 1.3 5.0 85 1.1 SSW 26 46 14 25 - - 0.2
25/11:00am 7.4 2.6 5.7 89 0.8 SW 20 35 11 19 - - 0.2
25/10:35am 6.4 -0.2 4.1 85 1.0 SW 28 46 15 25 - - 0.2
25/10:30am 8.0 2.8 5.5 84 1.1 SW 22 37 12 20 - - 0.0
25/10:00am 6.6 0.5 4.8 88 0.8 SSW 26 44 14 24 - - 0.0
25/09:30am 5.7 -0.5 4.2 90 0.7 SW 26 43 14 23 - - 0.0
25/09:00am 5.5 -0.4 4.0 90 0.6 SW 24 39 13 21 - - 14.0
25/08:54am 5.8 -0.8 4.4 91 0.6 SW 28 52 15 28 - - 14.0
25/08:30am 5.6 0.6 4.6 93 0.4 SW 20 32 11 17 - - 13.6
25/08:00am 5.8 0.4 4.6 92 0.5 SSW 22 41 12 22 - - 13.6
25/07:30am 5.0 -0.1 4.1 94 0.4 SW 20 35 11 19 - - 13.6
25/07:00am 4.7 -0.8 4.1 96 0.3 SSW 22 35 12 19 - - 13.6
25/06:30am 4.4 -2.2 4.0 97 0.2 SSW 28 48 15 26 - - 13.6
25/06:27am 4.4 -2.2 4.0 97 0.2 SSW 28 48 15 26 - - 13.6
25/06:00am 4.4 -1.8 4.1 98 0.1 SSW 26 41 14 22 - - 13.6
25/05:30am 4.5 -1.7 4.2 98 0.1 SSW 26 37 14 20 - - 13.6
25/05:21am 4.5 -2.1 4.2 98 0.1 SSW 28 48 15 26 - - 13.6
25/05:00am 4.5 -1.0 4.2 98 0.1 SW 22 35 12 19 - - 13.6
25/04:30am 4.6 -0.8 4.3 98 0.1 SSW 22 32 12 17 - - 13.4
25/04:00am 4.2 -1.7 3.9 98 0.1 SSW 24 32 13 17 - - 13.4
25/03:30am 4.6 -1.2 4.3 98 0.1 SSW 24 37 13 20 - - 13.2
25/03:00am 4.5 -1.0 4.2 98 0.1 SW 22 35 12 19 - - 13.2
25/02:30am 5.1 -0.6 4.8 98 0.1 SSW 24 43 13 23 - - 13.2
25/02:00am 5.1 -0.6 4.8 98 0.1 SSW 24 35 13 19 - - 13.2
25/01:30am 5.5 -0.9 5.2 98 0.1 SSW 28 43 15 23 - - 13.0
25/01:00am 5.8 -0.2 5.5 98 0.1 SW 26 43 14 23 - - 13.0
25/12:30am 6.0 -0.3 5.7 98 0.1 SSW 28 46 15 25 - - 12.8
25/12:27am 6.1 -0.2 5.8 98 0.1 SSW 28 46 15 25 - - 12.8
25/12:00am 6.4 0.6 6.1 98 0.1 SSW 26 46 14 25 - - 12.8
 
Date/Time
EST
Temp
°C
App
Temp
°C
Dew
Point
°C
Rel
Hum
%
Delta-T
°C
Wind Press
QNH
hPa
Press
MSL
hPa
Rain since
9am
mm
Dir  Spd
km/h
Gust
km/h
Spd
kts
Gust
kts
24/11:51pm 6.5 0.3 6.2 98 0.1 SSW 28 46 15 25 - - 12.6
24/11:30pm 6.6 1.2 6.3 98 0.1 SSW 24 35 13 19 - - 12.6
24/11:18pm 6.8 0.7 6.5 98 0.1 SSW 28 46 15 25 - - 12.6
24/11:00pm 7.3 1.7 7.0 98 0.1 SSW 26 41 14 22 - - 12.6
24/10:30pm 7.7 2.2 7.4 98 0.1 SSW 26 39 14 21 - - 12.6
24/10:05pm 8.0 2.1 7.7 98 0.1 SSW 28 50 15 27 - - 12.4
24/10:00pm 8.1 2.7 7.8 98 0.1 SSW 26 44 14 24 - - 12.4
24/09:30pm 8.3 3.7 8.0 98 0.1 WSW 22 35 12 19 - - 11.4
24/09:00pm 8.2 3.5 7.9 98 0.1 WSW 22 37 12 20 - - 11.4
24/08:30pm 8.2 3.9 7.9 98 0.1 WSW 20 32 11 17 - - 11.4
24/08:00pm 8.4 3.0 8.1 98 0.1 W 26 39 14 21 - - 11.2
24/07:30pm 8.6 5.0 8.3 98 0.1 WNW 17 30 9 16 - - 9.8
24/07:00pm 8.5 4.3 8.1 97 0.2 WNW 20 30 11 16 - - 8.6
24/06:30pm 8.5 4.3 8.1 97 0.2 WNW 20 28 11 15 - - 8.0
24/06:05pm 8.5 2.4 8.1 97 0.2 WNW 30 48 16 26 - - 8.0
24/06:00pm 8.6 1.9 8.2 97 0.2 WNW 33 48 18 26 - - 8.0
24/05:33pm 8.9 3.2 8.5 97 0.2 NW 28 48 15 26 - - 7.6
24/05:30pm 8.9 4.0 8.5 97 0.2 NW 24 35 13 19 - - 7.6
24/05:00pm 8.8 3.5 8.4 97 0.2 WNW 26 39 14 21 - - 7.6
24/04:30pm 8.2 0.2 7.6 96 0.3 WNW 39 57 21 31 - - 7.2
24/04:00pm 9.4 2.9 8.8 96 0.3 WNW 33 56 18 30 - - 6.0
24/03:30pm 9.2 1.1 8.6 96 0.3 NW 41 69 22 37 - - 5.6
24/03:27pm 9.2 1.8 8.4 95 0.4 NW 37 65 20 35 - - 5.4
24/03:00pm 9.3 3.3 8.5 95 0.4 WNW 30 39 16 21 - - 5.4
24/02:30pm 8.5 0.9 7.6 94 0.4 WNW 37 50 20 27 - - 5.4
24/02:00pm 10.0 3.7 8.8 92 0.6 WNW 32 50 17 27 - - 3.8
24/01:31pm 10.0 3.8 9.2 95 0.4 WNW 32 50 17 27 - - 3.8
24/01:30pm 10.0 3.8 9.2 95 0.4 WNW 32 44 17 24 - - 3.8
24/01:16pm 9.6 3.2 8.5 93 0.5 WNW 32 50 17 27 - - 3.8
24/01:00pm 9.5 3.0 8.3 92 0.6 WNW 32 41 17 22 - - 3.6
24/12:30pm 9.1 2.0 8.0 93 0.5 WNW 35 54 19 29 - - 3.6
24/12:04pm 8.8 0.9 8.0 95 0.4 WNW 39 59 21 32 - - 3.6
24/12:00pm 9.2 1.4 8.4 95 0.4 WNW 39 56 21 30 - - 3.6
24/11:32am 9.2 2.5 8.3 94 0.4 WNW 33 54 18 29 - - 2.6
24/11:30am 9.1 2.6 8.0 93 0.5 WNW 32 46 17 25 - - 2.0
24/11:00am 9.5 2.9 8.6 94 0.4 WNW 33 48 18 26 - - 1.4
24/10:43am 9.9 3.6 9.0 94 0.5 WNW 32 50 17 27 - - 0.2
24/10:30am 9.8 3.9 9.2 96 0.3 W 30 46 16 25 - - 0.2
24/10:21am 9.1 3.4 8.5 96 0.3 WNW 28 46 15 25 - - 0.2
24/10:00am 9.6 4.5 9.1 97 0.3 WNW 26 35 14 19 - - 0.0
24/09:30am 9.2 2.9 8.9 98 0.1 WNW 32 44 17 24 - - 0.0
24/09:20am 9.0 3.4 8.7 98 0.1 WNW 28 46 15 25 - - 0.0
24/09:00am 8.4 3.8 8.1 98 0.1 W 22 35 12 19 - - 16.4
24/08:38am 8.8 3.1 8.5 98 0.1 WNW 28 46 15 25 - - 15.6
24/08:30am 8.9 4.0 8.6 98 0.1 WNW 24 32 13 17 - - 15.6
24/08:00am 8.6 3.3 8.3 98 0.1 NW 26 41 14 22 - - 15.6
24/07:43am 8.5 2.8 8.2 98 0.1 WNW 28 46 15 25 - - 15.6
24/07:30am 8.6 2.1 8.3 98 0.1 W 32 46 17 25 - - 15.2
24/07:14am 8.5 2.8 8.2 98 0.1 WNW 28 63 15 34 - - 15.2
24/07:00am 8.5 4.3 8.2 98 0.1 WNW 20 35 11 19 - - 15.2
24/06:30am 8.1 1.5 7.8 98 0.1 WNW 32 50 17 27 - - 14.8
24/06:00am 8.6 1.6 8.3 98 0.1 WNW 35 56 19 30 - - 14.0
24/05:32am 8.7 3.0 8.4 98 0.1 WNW 28 46 15 25 - - 14.0
24/05:30am 8.7 3.0 8.4 98 0.1 WNW 28 41 15 22 - - 14.0
24/05:00am 8.6 2.5 8.3 98 0.1 WNW 30 44 16 24 - - 13.2
24/04:42am 8.6 2.5 8.3 98 0.1 WNW 30 50 16 27 - - 12.4
24/04:30am 8.5 1.4 8.2 98 0.1 WNW 35 50 19 27 - - 12.4
24/04:26am 8.5 2.0 8.2 98 0.1 WNW 32 50 17 27 - - 12.4
24/04:00am 8.5 1.4 8.2 98 0.1 WNW 35 46 19 25 - - 12.2
24/03:30am 8.4 0.6 8.1 98 0.1 WNW 39 57 21 31 - - 12.0
24/03:06am 8.7 1.7 8.4 98 0.1 WNW 35 54 19 29 - - 11.6
24/03:00am 8.7 1.3 8.4 98 0.1 WNW 37 52 20 28 - - 11.6
24/02:37am 8.7 3.0 8.4 98 0.1 WNW 28 52 15 28 - - 10.6
24/02:30am 8.7 4.5 8.4 98 0.1 W 20 41 11 22 - - 10.6
24/02:04am 8.7 3.0 8.4 98 0.1 W 28 57 15 31 - - 9.8
24/02:00am 8.7 3.4 8.4 98 0.1 W 26 57 14 31 - - 9.8
24/01:30am 8.7 2.2 8.3 97 0.2 W 32 50 17 27 - - 9.4
24/01:00am 8.6 0.0 8.2 97 0.2 WNW 43 61 23 33 - - 9.0
24/12:30am 9.2 2.6 8.7 97 0.2 WNW 33 54 18 29 - - 8.6
24/12:00am 9.2 0.7 8.7 97 0.2 WNW 43 63 23 34 - - 8.0
 
Date/Time
EST
Temp
°C
App
Temp
°C
Dew
Point
°C
Rel
Hum
%
Delta-T
°C
Wind Press
QNH
hPa
Press
MSL
hPa
Rain since
9am
mm
Dir  Spd
km/h
Gust
km/h
Spd
kts
Gust
kts
23/11:30pm 9.4 1.8 8.9 97 0.2 WNW 39 61 21 33 - - 7.8
23/11:08pm 9.3 2.4 8.8 97 0.2 WNW 35 59 19 32 - - 7.8
23/11:00pm 9.4 2.9 8.9 97 0.2 WNW 33 50 18 27 - - 7.8
23/10:30pm 9.5 1.1 9.0 97 0.3 WNW 43 56 23 30 - - 7.8
23/10:00pm 9.7 1.2 9.4 98 0.2 WNW 44 67 24 36 - - 7.6
23/09:32pm 9.7 2.2 9.4 98 0.2 NW 39 57 21 31 - - 7.6
23/09:30pm 9.7 1.8 9.4 98 0.2 NW 41 57 22 31 - - 7.6
23/09:11pm 9.8 1.9 9.5 98 0.2 NW 41 69 22 37 - - 7.6
23/09:00pm 9.8 2.3 9.5 98 0.2 NW 39 50 21 27 - - 7.4
23/08:45pm 9.7 2.6 9.4 98 0.2 NW 37 59 20 32 - - 7.4
23/08:30pm 9.7 3.3 9.4 98 0.2 NW 33 48 18 26 - - 7.4
23/08:00pm 9.6 3.8 9.3 98 0.2 NW 30 41 16 22 - - 7.4
23/07:30pm 9.5 4.4 9.2 98 0.2 NW 26 35 14 19 - - 7.4
23/07:00pm 9.3 6.6 9.0 98 0.2 N 13 15 7 8 - - 7.4
23/06:30pm 9.8 7.2 9.3 97 0.3 NNE 13 20 7 11 - - 7.2
23/06:00pm 10.2 6.4 9.7 97 0.3 NNW 20 30 11 16 - - 6.8
23/05:46pm 10.4 5.5 9.9 97 0.3 NW 26 35 14 19 - - 6.0
23/05:30pm 10.8 3.9 10.3 97 0.3 NW 37 48 20 26 - - 5.8
23/05:09pm 11.9 7.0 11.4 97 0.3 NW 28 59 15 32 - - 4.6
23/05:08pm 12.0 7.5 11.4 96 0.3 NNW 26 43 14 23 - - 4.2

Other Formats:

Comma delimited format used in spreadsheet applications
http://www.bom.gov.au/fwo/IDT60801/IDT60801.95956.axf

JavaScript Object Notation format (JSON) in row-major order
http://www.bom.gov.au/fwo/IDT60801/IDT60801.95956.json